Time;durP1;ratioP1;P1;durP2;ratioP2;P2;SDS_P1;SDS_P2;PMS_P1;PMS_P2;Temp;Humidity;BMP_temperature;BMP_pressure;BME280_temperature;BME280_humidity;BME280_pressure;Samples;Min_cycle;Max_cycle;Signal;HPM_P1;HPM_P2
2021/03/31 00:01:53;;;;;;;3.05;0.85;;;13.90;99.90;;;;;;4959376;28;20177;-76
2021/03/31 00:04:19;;;;;;;4.03;2.38;;;13.70;99.90;;;;;;4955119;29;20262;-77
2021/03/31 00:06:44;;;;;;;1.17;0.93;;;13.80;99.90;;;;;;4937855;29;20269;-78
2021/03/31 00:09:10;;;;;;;0.65;0.65;;;13.80;99.90;;;;;;4955051;29;20174;-78
2021/03/31 00:11:36;;;;;;;4.68;1.65;;;13.80;99.90;;;;;;4955083;29;20163;-78
2021/03/31 00:14:02;;;;;;;2.30;1.90;;;13.70;99.90;;;;;;4955046;29;20525;-77
2021/03/31 00:16:27;;;;;;;1.60;0.65;;;13.80;99.90;;;;;;4955007;29;20175;-77
2021/03/31 00:18:53;;;;;;;0.63;0.63;;;13.90;99.90;;;;;;4954972;29;20210;-76
2021/03/31 00:21:18;;;;;;;2.97;1.23;;;14.00;99.90;;;;;;4954938;29;20178;-77
2021/03/31 00:23:44;;;;;;;16.20;1.08;;;13.90;99.90;;;;;;4937774;29;20704;-77
2021/03/31 00:26:09;;;;;;;1.92;1.45;;;13.90;99.90;;;;;;4954910;29;20171;-80
2021/03/31 00:28:35;;;;;;;0.70;0.70;;;13.60;99.90;;;;;;4954950;29;20303;-80
2021/03/31 00:31:01;;;;;;;0.60;0.60;;;13.70;99.90;;;;;;4954873;29;20174;-80
2021/03/31 00:33:26;;;;;;;1.23;1.13;;;13.70;99.90;;;;;;4954989;29;20618;-81
2021/03/31 00:35:52;;;;;;;1.05;0.45;;;13.60;99.90;;;;;;4954871;29;20171;-80
2021/03/31 00:38:18;;;;;;;0.90;0.90;;;13.50;99.90;;;;;;4954688;29;20212;-80
2021/03/31 00:40:54;;;;;;;1.25;1.15;;;13.60;99.90;;;;;;4954911;29;20191;-78
2021/03/31 00:43:21;;;;;;;0.75;0.70;;;13.50;99.90;;;;;;4954803;29;20194;-78
2021/03/31 00:45:47;;;;;;;0.70;0.70;;;13.40;99.90;;;;;;4954931;29;20171;-77
2021/03/31 00:48:15;;;;;;;0.50;0.50;;;13.40;99.90;;;;;;4954775;29;20221;-78
2021/03/31 00:50:46;;;;;;;1.00;1.00;;;13.30;99.90;;;;;;4954650;29;20347;-79
2021/03/31 00:53:33;;;;;;;22.35;1.17;;;13.30;99.90;;;;;;4954784;29;20166;-77
2021/03/31 00:56:00;;;;;;;1.35;1.25;;;13.10;99.90;;;;;;4953981;29;20238;-77
2021/03/31 00:58:25;;;;;;;2.80;1.38;;;13.00;99.90;;;;;;4956962;28;20285;-77
2021/03/31 01:00:51;;;;;;;0.60;0.60;;;13.10;99.90;;;;;;4958382;29;20245;-76
2021/03/31 01:03:18;;;;;;;1.73;1.33;;;13.30;99.90;;;;;;4941240;29;20178;-77
2021/03/31 01:05:43;;;;;;;1.95;1.30;;;13.40;99.90;;;;;;4958273;29;20583;-77
2021/03/31 01:08:09;;;;;;;0.63;0.60;;;13.40;99.90;;;;;;4958175;29;20225;-78
2021/03/31 01:10:48;;;;;;;0.82;0.82;;;13.20;99.90;;;;;;4958269;29;20275;-77
2021/03/31 01:13:33;;;;;;;9.23;2.08;;;13.20;99.90;;;;;;4941031;29;20257;-76
2021/03/31 01:16:22;;;;;;;1.05;0.95;;;12.90;99.90;;;;;;4958099;29;20651;-77
2021/03/31 01:19:03;;;;;;;0.75;0.75;;;12.90;99.90;;;;;;4958189;29;20210;-80
2021/03/31 01:21:41;;;;;;;3.65;1.73;;;13.00;99.90;;;;;;4958063;29;20536;-77
2021/03/31 01:24:28;;;;;;;1.58;1.20;;;12.80;99.90;;;;;;4958012;29;20677;-81
2021/03/31 01:27:16;;;;;;;1.25;1.15;;;12.60;99.90;;;;;;4940693;29;20607;-80
2021/03/31 01:30:03;;;;;;;0.50;0.50;;;12.50;99.90;;;;;;4957920;29;20155;-80
2021/03/31 01:32:43;;;;;;;1.42;1.33;;;12.60;99.90;;;;;;4957844;29;20534;-81
2021/03/31 01:35:11;;;;;;;0.93;0.82;;;12.70;99.90;;;;;;4957899;29;20261;-80
2021/03/31 01:37:41;;;;;;;1.02;1.02;;;12.70;99.90;;;;;;4957604;29;20186;-80
2021/03/31 01:40:10;;;;;;;1.75;0.98;;;12.70;99.90;;;;;;4957744;29;20157;-81
2021/03/31 01:42:45;;;;;;;0.80;0.80;;;12.60;99.90;;;;;;4957745;29;20166;-79
2021/03/31 01:45:13;;;;;;;0.93;0.93;;;12.60;99.90;;;;;;4957532;29;20170;-79
2021/03/31 01:47:44;;;;;;;3.80;1.55;;;12.60;99.90;;;;;;4957524;29;20194;-80
2021/03/31 01:50:11;;;;;;;0.40;0.40;;;12.60;99.90;;;;;;4958076;29;20171;-80
2021/03/31 01:52:38;;;;;;;3.75;0.75;;;12.60;99.90;;;;;;4940155;29;20225;-80
2021/03/31 01:55:06;;;;;;;1.38;0.98;;;12.50;99.90;;;;;;4957394;29;20163;-78
2021/03/31 01:57:32;;;;;;;1.85;1.10;;;12.60;99.90;;;;;;4957106;29;20197;-80
2021/03/31 01:59:59;;;;;;;1.33;1.23;;;12.60;99.90;;;;;;4957416;29;20697;-79
2021/03/31 02:02:26;;;;;;;3.67;0.77;;;12.40;99.90;;;;;;4957333;29;20539;-78
2021/03/31 02:04:52;;;;;;;1.23;1.13;;;12.40;99.90;;;;;;4957156;29;20634;-79
2021/03/31 02:07:20;;;;;;;0.80;0.80;;;12.40;99.90;;;;;;4957132;29;20192;-78
2021/03/31 02:09:47;;;;;;;0.90;0.90;;;12.40;99.90;;;;;;4955890;28;20515;-77
2021/03/31 02:12:15;;;;;;;0.90;0.90;;;12.30;99.90;;;;;;4957064;29;20225;-77
2021/03/31 02:14:48;;;;;;;1.30;0.73;;;12.30;99.90;;;;;;4957134;29;20185;-77
2021/03/31 02:17:18;;;;;;;1.00;0.73;;;12.30;99.90;;;;;;4957053;29;20202;-77
2021/03/31 02:19:45;;;;;;;1.90;1.20;;;12.20;99.90;;;;;;4956996;29;20630;-79
2021/03/31 02:22:15;;;;;;;1.65;0.85;;;12.20;99.90;;;;;;4956954;29;20543;-78
2021/03/31 02:24:41;;;;;;;0.40;0.40;;;12.30;99.90;;;;;;4957000;29;20229;-80
2021/03/31 02:27:07;;;;;;;2.20;1.25;;;12.20;99.90;;;;;;4939569;29;20222;-80
2021/03/31 02:29:33;;;;;;;1.25;1.15;;;12.10;99.90;;;;;;4956954;29;20186;-77
2021/03/31 02:31:59;;;;;;;1.70;1.60;;;12.30;99.90;;;;;;4956766;29;20196;-78
2021/03/31 02:34:26;;;;;;;1.13;1.02;;;12.20;99.90;;;;;;4956756;29;20170;-79
2021/03/31 02:36:53;;;;;;;2.55;1.75;;;12.10;99.90;;;;;;4956683;29;20191;-78
2021/03/31 02:39:21;;;;;;;3.83;1.73;;;11.90;99.90;;;;;;4956589;29;20205;-78
2021/03/31 02:41:51;;;;;;;0.88;0.88;;;11.90;99.90;;;;;;4956736;29;20570;-80
2021/03/31 02:44:20;;;;;;;1.02;0.98;;;12.00;99.90;;;;;;4956554;29;20166;-80
2021/03/31 02:46:47;;;;;;;1.00;1.00;;;11.90;99.90;;;;;;4939298;29;20190;-78
2021/03/31 02:49:14;;;;;;;1.40;1.30;;;11.80;99.90;;;;;;4956703;29;20181;-80
2021/03/31 02:51:41;;;;;;;1.02;0.65;;;11.80;99.90;;;;;;4956401;29;20162;-78
2021/03/31 02:54:09;;;;;;;0.85;0.73;;;11.90;99.90;;;;;;4956463;29;20274;-80
2021/03/31 02:56:38;;;;;;;4.70;1.60;;;11.90;99.90;;;;;;4956232;29;20550;-81
2021/03/31 02:59:04;;;;;;;2.03;1.88;;;12.10;99.90;;;;;;4956131;29;20194;-81
2021/03/31 03:01:29;;;;;;;1.20;1.10;;;12.00;99.90;;;;;;4956166;29;20171;-78
2021/03/31 03:03:58;;;;;;;1.55;1.40;;;11.90;99.90;;;;;;4956432;29;20198;-80
2021/03/31 03:06:25;;;;;;;3.42;0.85;;;11.70;99.90;;;;;;4956135;29;20551;-80
2021/03/31 03:08:52;;;;;;;0.77;0.77;;;11.80;99.90;;;;;;4955987;29;20185;-78
2021/03/31 03:11:18;;;;;;;0.60;0.60;;;11.60;99.90;;;;;;4938843;29;20250;-78
2021/03/31 03:13:45;;;;;;;1.70;1.17;;;11.60;99.90;;;;;;4955910;29;20167;-78
2021/03/31 03:16:11;;;;;;;2.72;1.27;;;11.60;99.90;;;;;;4955995;29;20238;-79
2021/03/31 03:18:37;;;;;;;1.00;1.00;;;11.60;99.90;;;;;;4955870;29;20678;-81
2021/03/31 03:21:03;;;;;;;1.30;1.20;;;11.50;99.90;;;;;;4965727;23;596954;-78
2021/03/31 03:23:30;;;;;;;1.63;1.52;;;11.40;99.90;;;;;;4975160;28;20181;-78
2021/03/31 03:25:59;;;;;;;3.15;1.50;;;11.50;99.90;;;;;;4975176;28;20549;-79
2021/03/31 03:28:26;;;;;;;1.73;1.60;;;11.60;99.90;;;;;;4975021;28;20185;-79
2021/03/31 03:30:53;;;;;;;2.60;2.25;;;11.60;99.90;;;;;;4975159;28;20581;-78
2021/03/31 03:33:20;;;;;;;5.63;3.00;;;11.60;99.90;;;;;;4974892;28;20151;-78
2021/03/31 03:35:45;;;;;;;1.50;1.40;;;11.80;99.90;;;;;;4975009;28;20185;-78
2021/03/31 03:38:12;;;;;;;1.23;1.13;;;11.90;99.90;;;;;;4974728;28;20186;-79
2021/03/31 03:40:38;;;;;;;0.90;0.73;;;11.80;99.90;;;;;;4974852;28;20668;-79
2021/03/31 03:43:03;;;;;;;1.60;1.50;;;11.90;99.90;;;;;;4975102;28;20312;-80
2021/03/31 03:45:31;;;;;;;1.95;1.58;;;11.90;99.90;;;;;;4974759;28;20256;-79
2021/03/31 03:47:58;;;;;;;3.80;2.13;;;11.90;99.90;;;;;;4974717;28;20201;-79
2021/03/31 03:50:24;;;;;;;6.68;1.88;;;11.80;99.90;;;;;;4974942;28;20236;-78
2021/03/31 03:52:51;;;;;;;3.45;2.45;;;11.80;99.90;;;;;;4974644;28;20649;-77
2021/03/31 03:55:21;;;;;;;0.98;0.98;;;11.70;99.90;;;;;;4974389;28;20170;-78
2021/03/31 03:57:47;;;;;;;8.95;2.90;;;11.50;99.90;;;;;;4974337;28;20185;-77
2021/03/31 04:00:23;;;;;;;1.80;1.27;;;11.50;99.90;;;;;;4974837;28;20162;-80
2021/03/31 04:02:55;;;;;;;2.58;2.33;;;11.60;99.90;;;;;;4974561;28;20870;-78
2021/03/31 04:05:23;;;;;;;2.53;1.00;;;11.50;99.90;;;;;;4974406;28;20245;-79
2021/03/31 04:07:49;;;;;;;0.93;0.65;;;11.60;99.90;;;;;;4974563;28;20230;-79
2021/03/31 04:10:17;;;;;;;1.63;1.58;;;11.70;99.90;;;;;;4974385;28;20250;-79
2021/03/31 04:12:43;;;;;;;1.65;1.25;;;11.80;99.90;;;;;;4957063;28;20174;-78
2021/03/31 04:15:10;;;;;;;4.38;1.77;;;11.70;99.90;;;;;;4974355;28;20237;-79
2021/03/31 04:17:38;;;;;;;1.00;1.00;;;11.30;99.90;;;;;;4974189;28;20228;-78
2021/03/31 04:20:07;;;;;;;1.63;1.25;;;11.40;99.90;;;;;;4973888;28;20229;-77
2021/03/31 04:22:33;;;;;;;4.65;2.33;;;11.40;99.90;;;;;;4973988;28;20170;-77
2021/03/31 04:24:58;;;;;;;1.45;1.35;;;11.50;99.90;;;;;;4974079;28;20174;-77
2021/03/31 04:27:25;;;;;;;1.95;1.05;;;11.60;99.90;;;;;;4973882;28;20192;-78
2021/03/31 04:29:52;;;;;;;2.42;2.22;;;11.80;99.90;;;;;;4974240;28;20164;-77
2021/03/31 04:32:19;;;;;;;3.53;1.75;;;11.80;99.90;;;;;;4974726;28;20166;-78
2021/03/31 04:34:45;;;;;;;0.85;0.85;;;11.80;99.90;;;;;;4978194;28;20162;-79
2021/03/31 04:37:13;;;;;;;1.65;1.17;;;11.80;99.90;;;;;;4978094;28;20209;-79
2021/03/31 04:39:39;;;;;;;0.70;0.70;;;11.60;99.90;;;;;;4978001;28;20197;-79
2021/03/31 04:42:06;;;;;;;0.93;0.88;;;11.60;99.90;;;;;;4977871;28;20198;-78
2021/03/31 04:44:32;;;;;;;2.85;1.05;;;11.50;99.90;;;;;;4960328;28;20516;-78
2021/03/31 04:46:58;;;;;;;1.48;1.42;;;11.50;99.90;;;;;;4977827;28;20213;-77
2021/03/31 04:49:23;;;;;;;1.58;1.48;;;11.60;99.90;;;;;;4977746;28;20186;-79
2021/03/31 04:51:49;;;;;;;3.85;2.38;;;11.60;99.90;;;;;;4977929;28;20709;-78
2021/03/31 04:54:14;;;;;;;0.50;0.50;;;11.30;99.90;;;;;;4977774;28;20170;-78
2021/03/31 04:56:40;;;;;;;4.90;1.92;;;11.30;99.90;;;;;;4977749;28;20194;-78
2021/03/31 04:59:06;;;;;;;1.65;1.25;;;11.40;99.90;;;;;;4960313;28;20636;-78
2021/03/31 05:01:31;;;;;;;3.53;1.58;;;11.40;99.90;;;;;;4977203;28;20165;-78
2021/03/31 05:03:57;;;;;;;3.35;2.30;;;11.30;99.90;;;;;;4977494;28;20161;-79
2021/03/31 05:06:22;;;;;;;1.20;1.20;;;11.40;99.90;;;;;;4977525;28;20244;-78
2021/03/31 05:08:48;;;;;;;1.10;1.00;;;11.30;99.90;;;;;;4977405;28;20185;-77
2021/03/31 05:11:14;;;;;;;1.50;1.15;;;11.20;99.90;;;;;;4960080;28;20178;-77
2021/03/31 05:13:39;;;;;;;2.40;1.58;;;11.30;99.90;;;;;;4977469;28;20979;-78
2021/03/31 05:16:05;;;;;;;4.15;2.53;;;11.30;99.90;;;;;;4977232;28;20177;-78
2021/03/31 05:18:31;;;;;;;0.93;0.93;;;11.30;99.90;;;;;;4977140;28;20286;-76
2021/03/31 05:20:56;;;;;;;3.65;1.60;;;11.20;99.90;;;;;;4977168;28;20217;-77
2021/03/31 05:23:22;;;;;;;0.82;0.82;;;11.20;99.90;;;;;;4977385;28;20200;-76
2021/03/31 05:25:48;;;;;;;4.60;2.15;;;11.20;99.90;;;;;;4977378;28;20170;-77
2021/03/31 05:28:13;;;;;;;2.15;2.05;;;11.20;99.90;;;;;;4959554;28;20186;-76
2021/03/31 05:30:39;;;;;;;1.25;1.25;;;11.20;99.90;;;;;;4977143;28;20150;-79
2021/03/31 05:33:05;;;;;;;1.75;1.58;;;11.10;99.90;;;;;;4959597;28;20638;-79
2021/03/31 05:35:31;;;;;;;1.75;1.58;;;11.30;99.90;;;;;;4976950;28;20174;-76
2021/03/31 05:37:56;;;;;;;3.30;1.63;;;11.40;99.90;;;;;;4976575;28;20198;-76
2021/03/31 05:40:22;;;;;;;25.75;4.53;;;11.50;99.90;;;;;;4976648;28;20166;-76
2021/03/31 05:42:48;;;;;;;5.25;2.15;;;11.50;99.90;;;;;;4976435;28;20162;-78
2021/03/31 05:45:14;;;;;;;1.38;1.33;;;11.30;99.90;;;;;;4959285;28;20599;-77
2021/03/31 05:47:44;;;;;;;16.25;3.13;;;11.30;99.90;;;;;;4976769;28;20197;-77
2021/03/31 05:50:13;;;;;;;1.55;1.02;;;11.30;99.90;;;;;;4976845;28;20177;-76
2021/03/31 05:52:39;;;;;;;1.83;1.73;;;11.50;99.90;;;;;;4971499;28;20610;-77
2021/03/31 05:55:08;;;;;;;1.13;1.08;;;11.40;99.90;;;;;;4953407;28;20170;-78
2021/03/31 05:57:35;;;;;;;1.10;1.02;;;11.40;99.90;;;;;;4976417;28;20290;-78
2021/03/31 06:00:13;;;;;;;1.42;1.38;;;11.50;99.90;;;;;;4959073;28;20598;-78
2021/03/31 06:02:41;;;;;;;2.85;1.40;;;11.50;99.90;;;;;;4976383;28;20161;-78
2021/03/31 06:05:08;;;;;;;6.97;1.88;;;11.70;99.90;;;;;;4976078;28;20166;-78
2021/03/31 06:07:33;;;;;;;5.38;2.47;;;11.70;99.90;;;;;;4976244;28;20192;-78
2021/03/31 06:10:07;;;;;;;0.98;0.98;;;11.70;99.90;;;;;;4958997;28;20166;-77
2021/03/31 06:12:34;;;;;;;1.45;1.13;;;11.70;99.90;;;;;;4976218;28;20174;-77
2021/03/31 06:15:16;;;;;;;3.38;1.25;;;11.90;99.90;;;;;;4976108;28;20175;-76
2021/03/31 06:17:47;;;;;;;7.70;2.78;;;12.00;99.90;;;;;;4975759;28;20201;-81
2021/03/31 06:20:36;;;;;;;3.58;2.42;;;12.10;99.90;;;;;;4975757;28;20277;-77
2021/03/31 06:23:10;;;;;;;1.63;1.52;;;12.10;99.90;;;;;;4976102;28;20155;-81
2021/03/31 06:25:44;;;;;;;5.63;2.28;;;12.20;99.90;;;;;;4976147;28;20170;-77
2021/03/31 06:28:09;;;;;;;2.72;2.30;;;12.30;99.90;;;;;;4958409;28;20289;-77
2021/03/31 06:30:35;;;;;;;2.53;2.25;;;12.40;99.90;;;;;;4975931;28;20245;-79
2021/03/31 06:33:01;;;;;;;2.30;1.92;;;12.40;99.90;;;;;;4975904;28;20475;-79
2021/03/31 06:35:28;;;;;;;2.95;2.47;;;12.50;99.90;;;;;;4975983;28;20169;-79
2021/03/31 06:38:05;;;;;;;3.75;1.98;;;12.60;99.90;;;;;;4975632;28;20256;-78
2021/03/31 06:40:49;;;;;;;1.13;1.08;;;12.60;99.90;;;;;;4976009;28;20177;-80
2021/03/31 06:43:26;;;;;;;1.65;1.10;;;12.80;99.90;;;;;;4976002;28;20182;-76
2021/03/31 06:46:05;;;;;;;4.05;2.38;;;12.90;99.90;;;;;;4975629;28;20544;-77
2021/03/31 06:48:34;;;;;;;12.95;2.70;;;13.10;99.90;;;;;;4975473;28;20185;-78
2021/03/31 06:51:00;;;;;;;1.73;1.55;;;13.20;99.90;;;;;;4975913;28;20240;-77
2021/03/31 06:53:30;;;;;;;1.85;1.23;;;13.30;99.90;;;;;;4963636;28;20643;-78
2021/03/31 06:56:04;;;;;;;1.88;1.38;;;13.40;99.90;;;;;;4944287;28;20182;-77
2021/03/31 06:58:29;;;;;;;4.00;2.13;;;13.40;99.90;;;;;;4960901;28;20676;-77
2021/03/31 07:00:55;;;;;;;3.45;2.40;;;13.50;99.90;;;;;;4956010;28;20184;-77
2021/03/31 07:03:22;;;;;;;4.13;2.80;;;13.60;99.90;;;;;;4974070;28;20166;-78
2021/03/31 07:05:47;;;;;;;9.82;1.48;;;13.70;99.90;;;;;;4973561;28;20196;-78
2021/03/31 07:08:15;;;;;;;2.15;1.95;;;13.80;99.90;;;;;;4973860;28;20189;-81
2021/03/31 07:10:53;;;;;;;1.33;1.30;;;14.00;99.90;;;;;;4975239;28;20166;-78
2021/03/31 07:13:32;;;;;;;3.13;2.35;;;14.10;99.90;;;;;;4969767;28;20197;-79
2021/03/31 07:15:59;;;;;;;0.73;0.73;;;14.10;99.90;;;;;;4936547;29;20174;-80
2021/03/31 07:18:26;;;;;;;3.47;1.98;;;14.20;99.90;;;;;;4954218;29;20269;-77
2021/03/31 07:20:52;;;;;;;2.67;1.80;;;14.50;99.90;;;;;;4954463;29;20226;-79
2021/03/31 07:23:20;;;;;;;2.35;2.00;;;14.60;99.90;;;;;;4953832;28;20170;-76
2021/03/31 07:25:46;;;;;;;18.60;2.42;;;14.70;99.90;;;;;;4953828;29;20205;-80
2021/03/31 07:28:18;;;;;;;2.88;1.85;;;14.80;99.90;;;;;;4960479;28;20213;-76
2021/03/31 07:30:44;;;;;;;7.20;2.92;;;14.90;99.90;;;;;;4956745;28;20220;-74
2021/03/31 07:33:17;;;;;;;3.90;1.00;;;15.10;99.90;;;;;;4973315;28;20649;-77
2021/03/31 07:35:44;;;;;;;2.25;1.48;;;15.20;99.90;;;;;;4972892;28;20537;-80
2021/03/31 07:38:13;;;;;;;1.98;1.60;;;15.40;99.90;;;;;;4973625;28;20198;-80
2021/03/31 07:40:40;;;;;;;9.88;2.22;;;15.50;99.90;;;;;;4956269;28;20607;-78
2021/03/31 07:43:12;;;;;;;1.98;1.63;;;15.80;99.90;;;;;;4973118;28;20491;-79
2021/03/31 07:45:51;;;;;;;0.98;0.98;;;15.80;99.90;;;;;;4955964;28;20181;-77
2021/03/31 07:48:17;;;;;;;2.53;1.55;;;15.90;99.90;;;;;;4973068;28;20223;-78
2021/03/31 07:50:43;;;;;;;7.40;2.10;;;16.00;99.90;;;;;;4973174;28;20228;-76
2021/03/31 07:53:09;;;;;;;2.78;1.90;;;16.10;99.90;;;;;;4957218;28;20352;-79
2021/03/31 07:55:40;;;;;;;2.55;1.45;;;16.10;99.90;;;;;;4953924;28;20178;-77
2021/03/31 07:58:12;;;;;;;1.48;1.38;;;16.30;99.90;;;;;;4953835;29;20346;-76
2021/03/31 08:03:19;;;;;;;5.40;1.80;;;16.60;99.90;;;;;;4953812;29;20182;-80
2021/03/31 08:06:03;;;;;;;1.90;1.08;;;16.70;99.90;;;;;;4953915;29;20177;-81
2021/03/31 08:08:29;;;;;;;1.83;1.60;;;16.80;99.90;;;;;;4954541;28;20245;-82
2021/03/31 08:10:55;;;;;;;10.55;1.90;;;17.00;99.90;;;;;;4936607;29;20174;-82
2021/03/31 08:13:29;;;;;;;4.32;1.20;;;17.10;99.90;;;;;;4954372;29;20181;-82
2021/03/31 08:15:56;;;;;;;4.38;1.30;;;17.30;99.90;;;;;;4936938;29;20216;-82
2021/03/31 08:18:23;;;;;;;0.80;0.80;;;17.40;99.90;;;;;;4953840;28;20206;-80
2021/03/31 08:20:50;;;;;;;2.03;1.92;;;17.50;99.90;;;;;;4936656;29;20226;-79
2021/03/31 08:23:49;;;;;;;1.80;1.55;;;17.60;99.90;;;;;;4970788;28;20253;-82
2021/03/31 08:26:35;;;;;;;0.88;0.88;;;17.80;99.90;;;;;;4955529;28;20528;-82
2021/03/31 08:29:07;;;;;;;5.88;2.20;;;18.00;99.50;;;;;;4972959;28;20197;-80
2021/03/31 08:31:45;;;;;;;2.97;1.65;;;18.00;99.50;;;;;;4956273;28;20174;-80
2021/03/31 08:34:12;;;;;;;1.85;1.70;;;18.10;99.80;;;;;;4956441;28;20177;-83
2021/03/31 08:36:42;;;;;;;1.77;1.67;;;18.20;99.10;;;;;;4973820;28;20193;-84
2021/03/31 08:39:09;;;;;;;1.98;1.80;;;18.30;98.60;;;;;;4972883;28;20216;-82
2021/03/31 08:41:41;;;;;;;1.20;0.93;;;18.40;98.20;;;;;;4955857;28;20170;-82
2021/03/31 08:44:21;;;;;;;2.15;1.42;;;18.50;98.10;;;;;;4973521;28;20169;-83
2021/03/31 08:46:47;;;;;;;2.20;2.00;;;18.60;98.20;;;;;;4956026;28;20185;-84
2021/03/31 08:49:25;;;;;;;1.08;1.08;;;18.70;97.90;;;;;;4955618;28;20264;-86
2021/03/31 08:51:56;;;;;;;1.67;1.50;;;18.80;97.70;;;;;;4950612;29;20200;-83
2021/03/31 08:54:54;;;;;;;2.50;2.30;;;19.00;97.90;;;;;;4936869;29;20628;-82
2021/03/31 08:57:25;;;;;;;2.03;1.30;;;19.10;97.50;;;;;;4921497;29;20208;-82
2021/03/31 08:59:53;;;;;;;1.15;1.13;;;19.10;98.00;;;;;;4954212;29;20206;-85
2021/03/31 09:02:24;;;;;;;3.08;2.10;;;19.10;97.70;;;;;;4937864;29;20173;-86
2021/03/31 09:04:51;;;;;;;1.90;1.52;;;19.20;97.60;;;;;;4954759;29;20246;-81
2021/03/31 09:07:17;;;;;;;1.85;1.75;;;19.20;98.00;;;;;;4954266;29;20183;-82
2021/03/31 09:09:44;;;;;;;5.32;1.10;;;19.30;97.60;;;;;;4954246;29;20170;-81
2021/03/31 09:12:12;;;;;;;2.30;1.92;;;19.40;97.20;;;;;;4954319;29;20167;-81
2021/03/31 09:14:41;;;;;;;9.43;3.03;;;19.60;96.90;;;;;;4954479;29;20202;-80
2021/03/31 09:17:09;;;;;;;6.65;1.30;;;19.60;97.20;;;;;;4936753;29;20198;-81
2021/03/31 09:19:40;;;;;;;2.38;2.17;;;19.70;96.70;;;;;;4951538;28;20254;-83
2021/03/31 09:22:12;;;;;;;2.75;1.35;;;19.70;96.20;;;;;;4938569;29;20170;-82
2021/03/31 09:24:47;;;;;;;4.47;1.30;;;19.90;95.90;;;;;;4938575;29;20171;-82
2021/03/31 09:27:18;;;;;;;4.10;2.40;;;20.00;95.90;;;;;;4921450;29;20747;-82
2021/03/31 09:29:45;;;;;;;3.80;1.95;;;20.20;96.00;;;;;;4921494;29;20254;-82
2021/03/31 09:32:15;;;;;;;4.22;1.63;;;20.30;96.00;;;;;;4921604;29;20282;-83
2021/03/31 09:34:42;;;;;;;3.88;1.60;;;20.40;95.40;;;;;;4921313;29;20685;-82
2021/03/31 09:37:13;;;;;;;7.00;2.13;;;20.40;96.20;;;;;;4921315;29;20655;-80
2021/03/31 09:39:41;;;;;;;2.05;1.48;;;20.50;94.90;;;;;;4920232;29;20218;-81
2021/03/31 09:42:07;;;;;;;1.85;1.73;;;20.70;96.10;;;;;;4941439;29;20249;-82
2021/03/31 09:44:33;;;;;;;4.50;3.47;;;20.70;95.20;;;;;;4945612;29;20262;-82
2021/03/31 09:47:00;;;;;;;3.38;1.52;;;20.80;95.30;;;;;;4951113;29;20643;-79
2021/03/31 09:49:27;;;;;;;3.92;2.45;;;20.90;94.80;;;;;;4922181;29;20187;-79
2021/03/31 09:51:52;;;;;;;3.30;2.38;;;21.00;94.30;;;;;;4938139;29;20198;-80
2021/03/31 09:54:19;;;;;;;2.33;1.67;;;21.00;96.80;;;;;;4938324;29;20622;-82
2021/03/31 09:56:46;;;;;;;4.03;2.15;;;20.90;96.10;;;;;;4938546;29;20179;-81
2021/03/31 09:59:12;;;;;;;3.40;2.33;;;21.10;94.70;;;;;;4938364;29;21006;-83
2021/03/31 10:01:38;;;;;;;2.38;2.22;;;21.20;94.00;;;;;;4938430;29;20170;-84
2021/03/31 10:04:04;;;;;;;4.75;3.20;;;21.20;93.70;;;;;;4920963;29;20171;-85
2021/03/31 10:06:29;;;;;;;10.13;3.70;;;21.30;94.80;;;;;;4937630;29;20187;-82
2021/03/31 10:08:56;;;;;;;2.22;2.03;;;21.30;94.30;;;;;;4945377;29;20595;-81
2021/03/31 10:11:36;;;;;;;7.15;1.90;;;21.40;94.60;;;;;;4937943;29;20182;-81
2021/03/31 10:14:03;;;;;;;3.25;2.90;;;21.50;94.70;;;;;;4920521;29;20913;-81
2021/03/31 10:16:39;;;;;;;11.60;3.13;;;21.60;94.30;;;;;;4937666;29;20160;-81
2021/03/31 10:19:07;;;;;;;2.20;2.00;;;21.50;94.10;;;;;;4936724;29;20221;-82
2021/03/31 10:21:35;;;;;;;8.65;2.63;;;21.60;93.90;;;;;;4937676;29;20171;-80
2021/03/31 10:24:02;;;;;;;3.33;2.05;;;21.40;93.90;;;;;;4920242;29;20182;-81
2021/03/31 10:26:30;;;;;;;8.00;2.95;;;21.40;93.80;;;;;;4920404;29;20299;-82
2021/03/31 10:29:06;;;;;;;6.22;3.22;;;21.50;94.00;;;;;;4920563;29;20599;-82
2021/03/31 10:31:44;;;;;;;6.32;1.90;;;21.60;94.50;;;;;;4936532;29;20179;-82
2021/03/31 10:34:10;;;;;;;4.57;2.53;;;21.70;92.60;;;;;;4920341;29;20179;-84
2021/03/31 10:39:52;;;;;;;4.95;3.25;;;22.10;92.70;;;;;;4937414;29;20222;-84
2021/03/31 10:48:32;;;;;;;4.18;2.08;;;22.20;91.20;;;;;;4941118;29;20249;-82
2021/03/31 10:51:21;;;;;;;2.67;2.47;;;22.20;91.50;;;;;;4949623;29;20202;-83
2021/03/31 10:54:07;;;;;;;6.78;2.53;;;22.20;91.80;;;;;;4928846;29;20270;-83
2021/03/31 10:56:36;;;;;;;9.00;3.33;;;22.10;92.10;;;;;;4942876;29;20183;-83
2021/03/31 10:59:02;;;;;;;10.45;3.13;;;22.30;92.00;;;;;;4938886;29;20560;-83
2021/03/31 11:01:27;;;;;;;2.42;2.25;;;22.30;91.40;;;;;;4949533;29;20171;-82
2021/03/31 11:03:53;;;;;;;2.20;2.00;;;22.20;91.40;;;;;;4935376;29;20174;-82
2021/03/31 11:06:18;;;;;;;8.20;3.15;;;22.30;91.50;;;;;;4919807;29;20543;-83
2021/03/31 11:08:44;;;;;;;6.15;2.08;;;22.20;90.70;;;;;;4936434;29;20175;-81
2021/03/31 11:11:10;;;;;;;4.22;2.72;;;22.40;91.50;;;;;;4919347;29;20262;-83
2021/03/31 11:13:37;;;;;;;2.45;1.65;;;22.30;90.30;;;;;;4920062;29;20245;-82
2021/03/31 11:16:07;;;;;;;4.38;3.72;;;22.30;90.50;;;;;;4919580;29;20269;-83
2021/03/31 11:26:23;;;;;;;3.85;2.33;;;22.70;88.60;;;;;;4955935;29;20630;-81
2021/03/31 11:28:49;;;;;;;2.63;2.10;;;22.70;89.30;;;;;;4938145;29;20199;-81
2021/03/31 11:31:15;;;;;;;2.83;1.95;;;22.70;89.60;;;;;;4956180;29;20174;-81
2021/03/31 11:33:40;;;;;;;3.03;2.60;;;22.70;89.70;;;;;;4938398;29;20265;-84
2021/03/31 11:36:06;;;;;;;6.70;2.72;;;23.00;87.80;;;;;;4955032;29;20161;-80
2021/03/31 11:38:32;;;;;;;5.30;2.22;;;22.90;87.10;;;;;;4941344;29;20210;-80
2021/03/31 11:40:58;;;;;;;1.75;1.58;;;23.00;87.50;;;;;;4936742;29;20526;-80
2021/03/31 11:43:23;;;;;;;4.68;1.90;;;22.90;87.90;;;;;;4935959;29;20246;-80
2021/03/31 11:45:49;;;;;;;1.50;1.40;;;22.90;87.50;;;;;;4918852;29;20252;-79
2021/03/31 11:48:15;;;;;;;3.97;2.17;;;22.70;87.80;;;;;;4918787;29;20547;-79
2021/03/31 11:50:42;;;;;;;1.65;1.55;;;22.80;87.90;;;;;;4936140;29;20183;-80
2021/03/31 11:53:07;;;;;;;5.10;2.15;;;22.90;87.70;;;;;;4935991;29;20652;-81
2021/03/31 11:55:33;;;;;;;1.42;1.00;;;22.70;87.70;;;;;;4936062;29;20214;-78
2021/03/31 11:57:59;;;;;;;3.97;1.88;;;22.70;87.10;;;;;;4918591;29;20599;-81
2021/03/31 12:00:24;;;;;;;2.47;2.10;;;22.80;87.20;;;;;;4935849;29;20250;-80
2021/03/31 12:02:50;;;;;;;3.65;2.20;;;22.90;87.40;;;;;;4935409;29;20167;-78
2021/03/31 12:05:19;;;;;;;4.38;1.75;;;22.90;87.50;;;;;;4943456;29;20178;-79
2021/03/31 12:07:45;;;;;;;2.70;2.45;;;22.90;83.60;;;;;;4937575;29;20676;-80
2021/03/31 12:10:14;;;;;;;4.45;2.50;;;23.00;79.90;;;;;;4954910;29;20202;-80
2021/03/31 12:12:41;;;;;;;3.28;1.40;;;22.80;79.20;;;;;;4937802;29;20621;-86
2021/03/31 12:15:14;;;;;;;2.75;2.05;;;22.90;80.60;;;;;;4934571;29;20185;-82
2021/03/31 12:17:41;;;;;;;6.70;3.03;;;23.00;82.80;;;;;;4954306;29;20194;-82
2021/03/31 12:20:12;;;;;;;5.85;2.13;;;23.00;82.60;;;;;;4953965;29;20308;-81
2021/03/31 12:22:39;;;;;;;12.52;1.85;;;23.10;80.10;;;;;;4937270;29;20167;-82
2021/03/31 12:25:09;;;;;;;1.67;1.58;;;23.20;78.90;;;;;;4937504;29;20182;-81
2021/03/31 12:27:36;;;;;;;4.93;2.17;;;23.10;79.90;;;;;;4954926;29;20190;-83
2021/03/31 12:30:05;;;;;;;2.13;2.00;;;23.00;81.30;;;;;;4937419;29;20206;-81
2021/03/31 12:32:30;;;;;;;9.70;2.28;;;23.00;80.90;;;;;;4954410;29;20167;-81
2021/03/31 12:34:56;;;;;;;1.85;1.73;;;22.90;82.30;;;;;;4954544;29;20261;-81
2021/03/31 12:37:23;;;;;;;1.80;1.60;;;22.70;83.20;;;;;;4936930;29;20673;-82
2021/03/31 12:39:49;;;;;;;8.18;2.55;;;22.80;83.30;;;;;;4954776;29;20178;-81
2021/03/31 12:42:15;;;;;;;1.73;1.40;;;23.00;82.80;;;;;;4937112;29;20638;-82
2021/03/31 12:44:40;;;;;;;9.93;2.25;;;23.10;83.00;;;;;;4954399;29;20173;-79
2021/03/31 12:47:06;;;;;;;2.38;1.55;;;23.20;81.80;;;;;;4954336;29;20190;-80
2021/03/31 12:49:32;;;;;;;3.13;1.85;;;23.20;81.10;;;;;;4954125;29;20213;-79
2021/03/31 12:52:05;;;;;;;1.95;1.83;;;23.20;81.30;;;;;;4954199;29;20177;-78
2021/03/31 12:55:08;;;;;;;3.25;2.05;;;23.30;81.30;;;;;;4956877;28;20170;-78
2021/03/31 12:57:23;;;;;;;10.13;1.48;;;23.20;80.70;;;;;;4954021;29;20203;-79
2021/03/31 12:59:49;;;;;;;1.88;1.17;;;23.40;80.70;;;;;;4940895;29;20170;-80
2021/03/31 13:02:15;;;;;;;7.75;1.80;;;23.40;79.40;;;;;;4940881;29;20174;-80
2021/03/31 13:04:41;;;;;;;3.28;2.50;;;23.30;79.20;;;;;;4957599;29;20174;-80
2021/03/31 13:07:07;;;;;;;5.13;2.13;;;23.30;80.10;;;;;;4957769;29;20191;-79
2021/03/31 13:09:32;;;;;;;1.70;1.48;;;23.30;77.20;;;;;;4958001;29;20216;-81
2021/03/31 13:12:00;;;;;;;1.30;1.20;;;23.50;76.40;;;;;;4957885;29;20291;-79
2021/03/31 13:14:47;;;;;;;2.85;2.22;;;23.60;78.00;;;;;;4957681;29;20166;-80